sensor_id;sensor_type;location;lat;lon;timestamp;P1;durP1;ratioP1;P2;durP2;ratioP2
52470;SDS011;38382;53.160;7.026;2023-01-28T00:00:08;8.23;;;5.80;;
52470;SDS011;38382;53.160;7.026;2023-01-28T00:18:53;7.05;;;5.32;;
52470;SDS011;38382;53.160;7.026;2023-01-28T00:45:24;6.43;;;4.13;;
52470;SDS011;38382;53.160;7.026;2023-01-28T01:00:43;5.85;;;4.20;;
52470;SDS011;38382;53.160;7.026;2023-01-28T01:11:17;6.03;;;4.03;;
52470;SDS011;38382;53.160;7.026;2023-01-28T01:14:23;7.35;;;4.70;;
52470;SDS011;38382;53.160;7.026;2023-01-28T01:21:18;5.55;;;4.35;;
52470;SDS011;38382;53.160;7.026;2023-01-28T01:24:15;8.52;;;5.15;;
52470;SDS011;38382;53.160;7.026;2023-01-28T01:27:47;5.57;;;4.30;;
52470;SDS011;38382;53.160;7.026;2023-01-28T01:31:20;6.53;;;4.38;;
52470;SDS011;38382;53.160;7.026;2023-01-28T01:34:24;5.93;;;3.90;;
52470;SDS011;38382;53.160;7.026;2023-01-28T01:36:59;6.88;;;4.63;;
52470;SDS011;38382;53.160;7.026;2023-01-28T01:40:12;5.63;;;4.32;;
52470;SDS011;38382;53.160;7.026;2023-01-28T01:42:46;5.95;;;4.50;;
52470;SDS011;38382;53.160;7.026;2023-01-28T01:53:08;6.22;;;4.25;;
52470;SDS011;38382;53.160;7.026;2023-01-28T01:58:47;7.47;;;4.60;;
52470;SDS011;38382;53.160;7.026;2023-01-28T02:08:00;6.28;;;4.43;;
52470;SDS011;38382;53.160;7.026;2023-01-28T02:11:02;6.80;;;4.95;;
52470;SDS011;38382;53.160;7.026;2023-01-28T02:13:53;6.03;;;4.32;;
52470;SDS011;38382;53.160;7.026;2023-01-28T02:16:38;5.95;;;4.20;;
52470;SDS011;38382;53.160;7.026;2023-01-28T02:59:05;8.00;;;4.32;;
52470;SDS011;38382;53.160;7.026;2023-01-28T03:06:12;7.30;;;4.55;;
52470;SDS011;38382;53.160;7.026;2023-01-28T03:13:27;7.07;;;3.85;;
52470;SDS011;38382;53.160;7.026;2023-01-28T03:24:02;6.80;;;4.75;;
52470;SDS011;38382;53.160;7.026;2023-01-28T03:34:19;9.48;;;4.90;;
52470;SDS011;38382;53.160;7.026;2023-01-28T03:37:56;11.38;;;4.95;;
52470;SDS011;38382;53.160;7.026;2023-01-28T03:44:44;7.63;;;4.80;;
52470;SDS011;38382;53.160;7.026;2023-01-28T03:47:50;7.63;;;4.93;;
52470;SDS011;38382;53.160;7.026;2023-01-28T04:03:24;6.78;;;4.28;;
52470;SDS011;38382;53.160;7.026;2023-01-28T04:27:45;7.00;;;4.85;;
52470;SDS011;38382;53.160;7.026;2023-01-28T04:34:38;7.78;;;4.80;;
52470;SDS011;38382;53.160;7.026;2023-01-28T04:57:10;6.55;;;4.65;;
52470;SDS011;38382;53.160;7.026;2023-01-28T05:07:22;7.53;;;4.40;;
52470;SDS011;38382;53.160;7.026;2023-01-28T05:18:00;6.05;;;4.35;;
52470;SDS011;38382;53.160;7.026;2023-01-28T05:21:04;6.78;;;4.82;;
52470;SDS011;38382;53.160;7.026;2023-01-28T05:24:02;10.50;;;5.05;;
52470;SDS011;38382;53.160;7.026;2023-01-28T05:57:59;10.93;;;5.85;;
52470;SDS011;38382;53.160;7.026;2023-01-28T07:07:19;11.75;;;7.85;;
52470;SDS011;38382;53.160;7.026;2023-01-28T07:17:39;12.27;;;7.78;;
52470;SDS011;38382;53.160;7.026;2023-01-28T07:20:48;11.93;;;8.50;;
52470;SDS011;38382;53.160;7.026;2023-01-28T07:38:42;11.63;;;7.20;;
52470;SDS011;38382;53.160;7.026;2023-01-28T07:53:17;12.10;;;8.55;;
52470;SDS011;38382;53.160;7.026;2023-01-28T07:56:01;12.00;;;8.20;;
52470;SDS011;38382;53.160;7.026;2023-01-28T07:58:27;11.98;;;8.65;;
52470;SDS011;38382;53.160;7.026;2023-01-28T08:00:56;11.75;;;8.35;;
52470;SDS011;38382;53.160;7.026;2023-01-28T08:05:54;13.10;;;8.57;;
52470;SDS011;38382;53.160;7.026;2023-01-28T08:08:25;11.60;;;8.50;;
52470;SDS011;38382;53.160;7.026;2023-01-28T08:11:07;13.18;;;8.90;;
52470;SDS011;38382;53.160;7.026;2023-01-28T08:13:37;11.73;;;8.77;;
52470;SDS011;38382;53.160;7.026;2023-01-28T08:16:03;12.90;;;8.85;;
52470;SDS011;38382;53.160;7.026;2023-01-28T08:18:29;14.02;;;9.18;;
52470;SDS011;38382;53.160;7.026;2023-01-28T08:20:55;12.90;;;9.38;;
52470;SDS011;38382;53.160;7.026;2023-01-28T08:23:22;15.15;;;8.88;;
52470;SDS011;38382;53.160;7.026;2023-01-28T08:25:48;13.68;;;9.70;;
52470;SDS011;38382;53.160;7.026;2023-01-28T08:28:14;14.77;;;9.18;;
52470;SDS011;38382;53.160;7.026;2023-01-28T08:30:41;14.45;;;9.70;;
52470;SDS011;38382;53.160;7.026;2023-01-28T08:33:09;12.30;;;8.73;;
52470;SDS011;38382;53.160;7.026;2023-01-28T08:35:40;14.77;;;9.32;;
52470;SDS011;38382;53.160;7.026;2023-01-28T08:38:06;18.08;;;9.43;;
52470;SDS011;38382;53.160;7.026;2023-01-28T08:40:32;14.25;;;8.85;;
52470;SDS011;38382;53.160;7.026;2023-01-28T08:46:50;13.70;;;8.57;;
52470;SDS011;38382;53.160;7.026;2023-01-28T08:49:18;13.00;;;8.13;;
52470;SDS011;38382;53.160;7.026;2023-01-28T08:51:43;13.48;;;8.75;;
52470;SDS011;38382;53.160;7.026;2023-01-28T08:54:09;13.48;;;7.93;;
52470;SDS011;38382;53.160;7.026;2023-01-28T08:56:35;13.52;;;8.23;;
52470;SDS011;38382;53.160;7.026;2023-01-28T08:59:03;11.90;;;8.43;;
52470;SDS011;38382;53.160;7.026;2023-01-28T09:01:28;12.65;;;8.57;;
52470;SDS011;38382;53.160;7.026;2023-01-28T09:06:26;12.73;;;8.07;;
52470;SDS011;38382;53.160;7.026;2023-01-28T09:08:55;12.07;;;8.05;;
52470;SDS011;38382;53.160;7.026;2023-01-28T09:11:22;13.23;;;8.20;;
52470;SDS011;38382;53.160;7.026;2023-01-28T09:13:47;12.25;;;7.93;;
52470;SDS011;38382;53.160;7.026;2023-01-28T09:19:13;13.73;;;8.38;;
52470;SDS011;38382;53.160;7.026;2023-01-28T09:21:39;14.63;;;8.05;;
52470;SDS011;38382;53.160;7.026;2023-01-28T09:24:05;13.77;;;9.10;;
52470;SDS011;38382;53.160;7.026;2023-01-28T09:26:37;12.50;;;8.30;;
52470;SDS011;38382;53.160;7.026;2023-01-28T09:29:03;11.13;;;7.88;;
52470;SDS011;38382;53.160;7.026;2023-01-28T09:31:29;10.57;;;8.10;;
52470;SDS011;38382;53.160;7.026;2023-01-28T09:33:54;12.27;;;8.40;;
52470;SDS011;38382;53.160;7.026;2023-01-28T09:36:21;16.67;;;8.60;;
52470;SDS011;38382;53.160;7.026;2023-01-28T09:38:47;13.60;;;8.55;;
52470;SDS011;38382;53.160;7.026;2023-01-28T09:42:00;14.57;;;8.38;;
52470;SDS011;38382;53.160;7.026;2023-01-28T09:47:01;13.43;;;7.80;;
52470;SDS011;38382;53.160;7.026;2023-01-28T09:52:12;10.25;;;7.30;;
52470;SDS011;38382;53.160;7.026;2023-01-28T09:54:48;10.80;;;7.60;;
52470;SDS011;38382;53.160;7.026;2023-01-28T09:57:32;13.07;;;8.20;;
52470;SDS011;38382;53.160;7.026;2023-01-28T10:00:14;11.55;;;6.90;;
52470;SDS011;38382;53.160;7.026;2023-01-28T10:05:25;11.40;;;7.13;;
52470;SDS011;38382;53.160;7.026;2023-01-28T10:13:50;10.95;;;6.25;;
52470;SDS011;38382;53.160;7.026;2023-01-28T10:16:28;9.07;;;5.72;;
52470;SDS011;38382;53.160;7.026;2023-01-28T10:19:06;11.05;;;6.35;;
52470;SDS011;38382;53.160;7.026;2023-01-28T10:21:42;8.55;;;5.75;;
52470;SDS011;38382;53.160;7.026;2023-01-28T10:24:17;9.00;;;5.70;;
52470;SDS011;38382;53.160;7.026;2023-01-28T10:26:47;8.95;;;5.68;;
52470;SDS011;38382;53.160;7.026;2023-01-28T10:29:20;8.77;;;5.30;;
52470;SDS011;38382;53.160;7.026;2023-01-28T10:31:53;7.35;;;4.85;;
52470;SDS011;38382;53.160;7.026;2023-01-28T10:34:38;7.38;;;5.28;;
52470;SDS011;38382;53.160;7.026;2023-01-28T10:37:04;9.85;;;5.25;;
52470;SDS011;38382;53.160;7.026;2023-01-28T10:39:30;9.13;;;5.85;;
52470;SDS011;38382;53.160;7.026;2023-01-28T10:41:55;10.40;;;5.72;;
52470;SDS011;38382;53.160;7.026;2023-01-28T10:44:29;8.63;;;5.97;;
52470;SDS011;38382;53.160;7.026;2023-01-28T10:47:01;9.60;;;5.70;;
52470;SDS011;38382;53.160;7.026;2023-01-28T10:49:36;8.73;;;6.00;;
52470;SDS011;38382;53.160;7.026;2023-01-28T10:52:13;8.05;;;5.57;;
52470;SDS011;38382;53.160;7.026;2023-01-28T10:54:40;8.85;;;5.88;;
52470;SDS011;38382;53.160;7.026;2023-01-28T10:57:09;10.25;;;5.85;;
52470;SDS011;38382;53.160;7.026;2023-01-28T10:59:40;9.25;;;6.05;;
52470;SDS011;38382;53.160;7.026;2023-01-28T11:05:02;9.23;;;6.70;;
52470;SDS011;38382;53.160;7.026;2023-01-28T11:07:29;8.73;;;5.85;;
52470;SDS011;38382;53.160;7.026;2023-01-28T11:09:58;8.25;;;6.18;;
52470;SDS011;38382;53.160;7.026;2023-01-28T11:12:28;10.93;;;6.28;;
52470;SDS011;38382;53.160;7.026;2023-01-28T11:14:58;8.73;;;6.03;;
52470;SDS011;38382;53.160;7.026;2023-01-28T11:17:27;10.05;;;6.30;;
52470;SDS011;38382;53.160;7.026;2023-01-28T11:19:59;9.40;;;6.40;;
52470;SDS011;38382;53.160;7.026;2023-01-28T11:22:37;8.55;;;6.15;;
52470;SDS011;38382;53.160;7.026;2023-01-28T11:27:53;9.20;;;6.20;;
52470;SDS011;38382;53.160;7.026;2023-01-28T11:30:21;9.50;;;6.45;;
52470;SDS011;38382;53.160;7.026;2023-01-28T11:32:54;8.38;;;5.68;;
52470;SDS011;38382;53.160;7.026;2023-01-28T11:35:23;8.80;;;6.10;;
52470;SDS011;38382;53.160;7.026;2023-01-28T11:37:58;11.55;;;6.80;;
52470;SDS011;38382;53.160;7.026;2023-01-28T11:41:00;9.45;;;5.75;;
52470;SDS011;38382;53.160;7.026;2023-01-28T11:51:03;8.68;;;5.85;;
52470;SDS011;38382;53.160;7.026;2023-01-28T11:56:59;8.95;;;5.63;;
52470;SDS011;38382;53.160;7.026;2023-01-28T14:18:34;9.00;;;6.00;;
52470;SDS011;38382;53.160;7.026;2023-01-28T14:21:14;10.48;;;6.22;;
52470;SDS011;38382;53.160;7.026;2023-01-28T14:23:52;8.88;;;6.20;;
52470;SDS011;38382;53.160;7.026;2023-01-28T14:31:42;11.52;;;6.63;;
52470;SDS011;38382;53.160;7.026;2023-01-28T14:34:26;10.75;;;6.63;;
52470;SDS011;38382;53.160;7.026;2023-01-28T14:37:03;11.57;;;6.72;;
52470;SDS011;38382;53.160;7.026;2023-01-28T14:39:36;10.27;;;6.68;;
52470;SDS011;38382;53.160;7.026;2023-01-28T14:42:29;11.07;;;6.60;;
52470;SDS011;38382;53.160;7.026;2023-01-28T14:45:24;11.20;;;6.60;;
52470;SDS011;38382;53.160;7.026;2023-01-28T14:48:10;9.02;;;5.85;;
52470;SDS011;38382;53.160;7.026;2023-01-28T14:53:38;10.63;;;6.30;;
52470;SDS011;38382;53.160;7.026;2023-01-28T14:59:19;11.13;;;6.72;;
52470;SDS011;38382;53.160;7.026;2023-01-28T15:01:54;11.23;;;6.72;;
52470;SDS011;38382;53.160;7.026;2023-01-28T15:04:23;11.07;;;6.57;;
52470;SDS011;38382;53.160;7.026;2023-01-28T15:06:51;12.32;;;7.03;;
52470;SDS011;38382;53.160;7.026;2023-01-28T15:09:17;15.43;;;6.93;;
52470;SDS011;38382;53.160;7.026;2023-01-28T15:11:44;11.32;;;6.45;;
52470;SDS011;38382;53.160;7.026;2023-01-28T15:14:15;10.50;;;7.07;;
52470;SDS011;38382;53.160;7.026;2023-01-28T15:16:49;10.63;;;6.88;;
52470;SDS011;38382;53.160;7.026;2023-01-28T15:19:15;12.50;;;7.38;;
52470;SDS011;38382;53.160;7.026;2023-01-28T15:21:46;13.13;;;7.32;;
52470;SDS011;38382;53.160;7.026;2023-01-28T15:24:13;10.90;;;7.25;;
52470;SDS011;38382;53.160;7.026;2023-01-28T15:26:43;13.55;;;7.28;;
52470;SDS011;38382;53.160;7.026;2023-01-28T15:31:49;11.88;;;6.88;;
52470;SDS011;38382;53.160;7.026;2023-01-28T15:34:16;10.80;;;6.68;;
52470;SDS011;38382;53.160;7.026;2023-01-28T15:36:43;13.85;;;7.32;;
52470;SDS011;38382;53.160;7.026;2023-01-28T15:39:15;12.95;;;7.13;;
52470;SDS011;38382;53.160;7.026;2023-01-28T15:41:45;11.90;;;7.10;;
52470;SDS011;38382;53.160;7.026;2023-01-28T15:47:00;11.93;;;6.60;;
52470;SDS011;38382;53.160;7.026;2023-01-28T15:49:47;11.32;;;6.72;;
52470;SDS011;38382;53.160;7.026;2023-01-28T15:52:17;11.48;;;6.70;;
52470;SDS011;38382;53.160;7.026;2023-01-28T15:54:48;13.10;;;6.93;;
52470;SDS011;38382;53.160;7.026;2023-01-28T15:57:32;13.20;;;7.18;;
52470;SDS011;38382;53.160;7.026;2023-01-28T16:02:31;13.13;;;6.75;;
52470;SDS011;38382;53.160;7.026;2023-01-28T16:07:28;11.38;;;6.63;;
52470;SDS011;38382;53.160;7.026;2023-01-28T16:09:56;10.05;;;6.63;;
52470;SDS011;38382;53.160;7.026;2023-01-28T16:12:25;13.13;;;7.05;;
52470;SDS011;38382;53.160;7.026;2023-01-28T16:14:55;11.23;;;6.65;;
52470;SDS011;38382;53.160;7.026;2023-01-28T16:17:30;13.15;;;7.13;;
52470;SDS011;38382;53.160;7.026;2023-01-28T16:22:49;12.90;;;6.82;;
52470;SDS011;38382;53.160;7.026;2023-01-28T16:27:47;11.38;;;6.13;;
52470;SDS011;38382;53.160;7.026;2023-01-28T16:30:14;12.38;;;6.47;;
52470;SDS011;38382;53.160;7.026;2023-01-28T16:32:40;11.88;;;7.30;;
52470;SDS011;38382;53.160;7.026;2023-01-28T16:37:52;13.32;;;6.72;;
52470;SDS011;38382;53.160;7.026;2023-01-28T16:40:18;11.73;;;6.90;;
52470;SDS011;38382;53.160;7.026;2023-01-28T16:42:46;12.75;;;7.13;;
52470;SDS011;38382;53.160;7.026;2023-01-28T16:45:21;14.60;;;7.32;;
52470;SDS011;38382;53.160;7.026;2023-01-28T16:47:49;12.60;;;7.35;;
52470;SDS011;38382;53.160;7.026;2023-01-28T16:50:16;13.35;;;7.45;;
52470;SDS011;38382;53.160;7.026;2023-01-28T16:52:42;13.77;;;7.68;;
52470;SDS011;38382;53.160;7.026;2023-01-28T16:55:14;11.40;;;6.95;;
52470;SDS011;38382;53.160;7.026;2023-01-28T16:57:43;12.60;;;6.82;;
52470;SDS011;38382;53.160;7.026;2023-01-28T17:00:17;14.13;;;7.90;;
52470;SDS011;38382;53.160;7.026;2023-01-28T17:02:48;12.70;;;7.40;;
52470;SDS011;38382;53.160;7.026;2023-01-28T17:05:14;13.68;;;7.15;;
52470;SDS011;38382;53.160;7.026;2023-01-28T17:07:40;11.82;;;7.35;;
52470;SDS011;38382;53.160;7.026;2023-01-28T17:10:07;13.27;;;7.55;;
52470;SDS011;38382;53.160;7.026;2023-01-28T17:12:33;17.63;;;8.27;;
52470;SDS011;38382;53.160;7.026;2023-01-28T17:14:59;15.10;;;7.53;;
52470;SDS011;38382;53.160;7.026;2023-01-28T17:17:27;12.15;;;7.30;;
52470;SDS011;38382;53.160;7.026;2023-01-28T17:19:53;13.85;;;8.32;;
52470;SDS011;38382;53.160;7.026;2023-01-28T17:22:19;13.82;;;7.82;;
52470;SDS011;38382;53.160;7.026;2023-01-28T17:24:51;12.77;;;8.10;;
52470;SDS011;38382;53.160;7.026;2023-01-28T17:27:17;13.98;;;7.60;;
52470;SDS011;38382;53.160;7.026;2023-01-28T17:29:42;14.90;;;9.30;;
52470;SDS011;38382;53.160;7.026;2023-01-28T17:32:08;16.25;;;8.00;;
52470;SDS011;38382;53.160;7.026;2023-01-28T17:34:34;13.35;;;8.32;;
52470;SDS011;38382;53.160;7.026;2023-01-28T17:37:00;16.67;;;8.00;;
52470;SDS011;38382;53.160;7.026;2023-01-28T17:39:25;15.80;;;8.52;;
52470;SDS011;38382;53.160;7.026;2023-01-28T17:41:51;14.23;;;8.35;;
52470;SDS011;38382;53.160;7.026;2023-01-28T17:44:17;14.95;;;7.82;;
52470;SDS011;38382;53.160;7.026;2023-01-28T17:46:43;14.63;;;8.07;;
52470;SDS011;38382;53.160;7.026;2023-01-28T17:49:11;12.90;;;7.07;;
52470;SDS011;38382;53.160;7.026;2023-01-28T17:51:37;13.57;;;7.70;;
52470;SDS011;38382;53.160;7.026;2023-01-28T17:54:06;12.98;;;7.55;;
52470;SDS011;38382;53.160;7.026;2023-01-28T17:56:32;13.50;;;7.40;;
52470;SDS011;38382;53.160;7.026;2023-01-28T17:58:58;15.98;;;7.60;;
52470;SDS011;38382;53.160;7.026;2023-01-28T18:01:30;13.43;;;8.07;;
52470;SDS011;38382;53.160;7.026;2023-01-28T18:03:57;13.50;;;7.25;;
52470;SDS011;38382;53.160;7.026;2023-01-28T18:06:24;12.88;;;7.25;;
52470;SDS011;38382;53.160;7.026;2023-01-28T18:08:56;16.58;;;8.57;;
52470;SDS011;38382;53.160;7.026;2023-01-28T18:11:22;15.02;;;7.60;;
52470;SDS011;38382;53.160;7.026;2023-01-28T18:13:48;19.75;;;9.30;;
52470;SDS011;38382;53.160;7.026;2023-01-28T18:16:14;16.95;;;8.13;;
52470;SDS011;38382;53.160;7.026;2023-01-28T18:18:43;15.77;;;8.68;;
52470;SDS011;38382;53.160;7.026;2023-01-28T18:21:43;13.85;;;7.28;;
52470;SDS011;38382;53.160;7.026;2023-01-28T18:24:05;13.18;;;6.97;;
52470;SDS011;38382;53.160;7.026;2023-01-28T18:26:31;16.92;;;8.02;;
52470;SDS011;38382;53.160;7.026;2023-01-28T18:28:57;14.73;;;8.00;;
52470;SDS011;38382;53.160;7.026;2023-01-28T18:31:23;13.55;;;7.25;;
52470;SDS011;38382;53.160;7.026;2023-01-28T18:33:49;13.60;;;6.78;;
52470;SDS011;38382;53.160;7.026;2023-01-28T18:36:14;15.52;;;7.57;;
52470;SDS011;38382;53.160;7.026;2023-01-28T18:38:40;14.15;;;7.90;;
52470;SDS011;38382;53.160;7.026;2023-01-28T18:41:06;14.27;;;7.88;;
52470;SDS011;38382;53.160;7.026;2023-01-28T18:43:32;17.45;;;8.40;;
52470;SDS011;38382;53.160;7.026;2023-01-28T18:46:00;12.93;;;8.02;;
52470;SDS011;38382;53.160;7.026;2023-01-28T18:48:32;12.93;;;7.55;;
52470;SDS011;38382;53.160;7.026;2023-01-28T18:50:58;13.82;;;7.43;;
52470;SDS011;38382;53.160;7.026;2023-01-28T18:53:24;12.98;;;7.25;;
52470;SDS011;38382;53.160;7.026;2023-01-28T18:55:50;13.07;;;7.38;;
52470;SDS011;38382;53.160;7.026;2023-01-28T18:58:18;14.18;;;8.10;;
52470;SDS011;38382;53.160;7.026;2023-01-28T19:00:44;14.57;;;7.45;;
52470;SDS011;38382;53.160;7.026;2023-01-28T19:03:10;13.23;;;7.05;;
52470;SDS011;38382;53.160;7.026;2023-01-28T19:05:36;13.27;;;6.93;;
52470;SDS011;38382;53.160;7.026;2023-01-28T19:08:03;12.48;;;6.97;;
52470;SDS011;38382;53.160;7.026;2023-01-28T19:10:30;12.63;;;7.10;;
52470;SDS011;38382;53.160;7.026;2023-01-28T19:12:56;15.00;;;6.60;;
52470;SDS011;38382;53.160;7.026;2023-01-28T19:15:22;16.30;;;7.97;;
52470;SDS011;38382;53.160;7.026;2023-01-28T19:17:48;13.00;;;7.35;;
52470;SDS011;38382;53.160;7.026;2023-01-28T19:20:14;14.88;;;7.70;;
52470;SDS011;38382;53.160;7.026;2023-01-28T19:22:40;12.35;;;6.88;;
52470;SDS011;38382;53.160;7.026;2023-01-28T19:25:06;12.25;;;6.82;;
52470;SDS011;38382;53.160;7.026;2023-01-28T19:27:32;16.67;;;7.00;;
52470;SDS011;38382;53.160;7.026;2023-01-28T19:29:58;13.13;;;6.72;;
52470;SDS011;38382;53.160;7.026;2023-01-28T19:32:27;13.63;;;7.15;;
52470;SDS011;38382;53.160;7.026;2023-01-28T20:13:15;10.65;;;6.10;;
52470;SDS011;38382;53.160;7.026;2023-01-28T20:15:40;10.38;;;6.05;;
52470;SDS011;38382;53.160;7.026;2023-01-28T21:04:57;20.02;;;9.02;;
52470;SDS011;38382;53.160;7.026;2023-01-28T21:07:25;17.55;;;8.57;;
52470;SDS011;38382;53.160;7.026;2023-01-28T21:16:32;17.63;;;8.40;;
52470;SDS011;38382;53.160;7.026;2023-01-28T21:19:29;16.23;;;8.23;;
52470;SDS011;38382;53.160;7.026;2023-01-28T21:21:55;16.30;;;8.85;;
52470;SDS011;38382;53.160;7.026;2023-01-28T21:31:25;18.30;;;9.52;;
52470;SDS011;38382;53.160;7.026;2023-01-28T21:38:14;18.83;;;9.55;;
52470;SDS011;38382;53.160;7.026;2023-01-28T21:44:12;25.67;;;10.00;;
52470;SDS011;38382;53.160;7.026;2023-01-28T21:47:05;22.17;;;10.20;;
52470;SDS011;38382;53.160;7.026;2023-01-28T21:49:43;20.75;;;10.15;;
52470;SDS011;38382;53.160;7.026;2023-01-28T21:52:33;18.90;;;10.23;;
52470;SDS011;38382;53.160;7.026;2023-01-28T21:55:13;23.45;;;9.98;;
52470;SDS011;38382;53.160;7.026;2023-01-28T21:57:48;22.73;;;10.40;;
52470;SDS011;38382;53.160;7.026;2023-01-28T22:00:34;18.90;;;9.63;;
52470;SDS011;38382;53.160;7.026;2023-01-28T22:03:55;19.90;;;10.55;;
52470;SDS011;38382;53.160;7.026;2023-01-28T22:06:41;18.67;;;9.45;;
52470;SDS011;38382;53.160;7.026;2023-01-28T22:16:56;18.75;;;8.95;;
52470;SDS011;38382;53.160;7.026;2023-01-28T22:25:05;18.50;;;7.80;;
52470;SDS011;38382;53.160;7.026;2023-01-28T22:34:58;12.93;;;7.60;;
52470;SDS011;38382;53.160;7.026;2023-01-28T22:45:25;13.63;;;7.80;;
52470;SDS011;38382;53.160;7.026;2023-01-28T22:48:19;11.50;;;7.35;;
52470;SDS011;38382;53.160;7.026;2023-01-28T22:58:47;15.38;;;7.30;;
52470;SDS011;38382;53.160;7.026;2023-01-28T23:14:01;15.45;;;7.85;;
52470;SDS011;38382;53.160;7.026;2023-01-28T23:17:01;15.38;;;7.20;;
52470;SDS011;38382;53.160;7.026;2023-01-28T23:20:03;11.52;;;6.93;;
52470;SDS011;38382;53.160;7.026;2023-01-28T23:26:11;13.75;;;6.75;;
52470;SDS011;38382;53.160;7.026;2023-01-28T23:43:17;12.77;;;6.78;;
52470;SDS011;38382;53.160;7.026;2023-01-28T23:45:43;12.57;;;6.30;;
52470;SDS011;38382;53.160;7.026;2023-01-28T23:51:01;10.38;;;6.28;;
52470;SDS011;38382;53.160;7.026;2023-01-28T23:53:36;15.05;;;7.38;;
52470;SDS011;38382;53.160;7.026;2023-01-28T23:56:17;14.15;;;6.25;;
